createdAt,value
2024-03-02T00:00:03.189Z,1006.09
2024-03-02T00:00:22.076Z,1006.01
2024-03-02T00:00:31.928Z,1005.98
2024-03-02T00:00:41.553Z,1005.99
2024-03-02T00:00:50.824Z,1006.02
2024-03-02T00:01:00.218Z,1006.03
2024-03-02T00:01:09.623Z,1005.99
2024-03-02T00:01:28.476Z,1005.97
2024-03-02T00:01:38.115Z,1006.08
2024-03-02T00:01:47.520Z,1006.00
2024-03-02T00:01:56.898Z,1006.03
2024-03-02T00:02:06.325Z,1006.00
2024-03-02T00:02:15.739Z,1006.02
2024-03-02T00:02:34.559Z,1005.99
2024-03-02T00:02:43.969Z,1006.01
2024-03-02T00:02:53.394Z,1005.98
2024-03-02T00:03:02.861Z,1006.03
2024-03-02T00:03:12.345Z,1005.97
2024-03-02T00:03:21.716Z,1006.03
2024-03-02T00:03:40.638Z,1005.97
2024-03-02T00:03:49.943Z,1006.07
2024-03-02T00:03:59.416Z,1005.93
2024-03-02T00:04:08.804Z,1006.01
2024-03-02T00:04:18.217Z,1005.92
2024-03-02T00:04:27.617Z,1005.97
2024-03-02T00:04:46.470Z,1005.97
2024-03-02T00:04:55.846Z,1005.95
2024-03-02T00:05:05.325Z,1005.95
2024-03-02T00:05:14.752Z,1005.97
2024-03-02T00:05:24.154Z,1005.99
2024-03-02T00:05:33.549Z,1005.91
2024-03-02T00:05:52.409Z,1005.98
2024-03-02T00:06:02.023Z,1005.95
2024-03-02T00:06:11.535Z,1005.94
2024-03-02T00:06:20.914Z,1005.96
2024-03-02T00:06:30.338Z,1005.96
2024-03-02T00:06:39.709Z,1005.96
2024-03-02T00:06:58.609Z,1005.93
2024-03-02T00:07:07.951Z,1005.94
2024-03-02T00:07:17.425Z,1006.04
2024-03-02T00:07:26.850Z,1005.95
2024-03-02T00:07:36.261Z,1005.93
2024-03-02T00:07:45.673Z,1005.88
2024-03-02T00:08:04.455Z,1005.95
2024-03-02T00:08:13.863Z,1005.92
2024-03-02T00:08:23.266Z,1005.90
2024-03-02T00:08:32.739Z,1005.93
2024-03-02T00:08:42.162Z,1005.88
2024-03-02T00:08:51.628Z,1006.01
2024-03-02T00:09:10.422Z,1005.93
2024-03-02T00:09:19.837Z,1005.92
2024-03-02T00:09:29.211Z,1005.91
2024-03-02T00:09:38.609Z,1005.97
2024-03-02T00:09:48.161Z,1005.94
2024-03-02T00:09:59.199Z,1005.94
2024-03-02T00:10:18.042Z,1006.00
2024-03-02T00:10:27.447Z,1005.97
2024-03-02T00:10:36.900Z,1005.92
2024-03-02T00:10:46.391Z,1005.96
2024-03-02T00:10:58.126Z,1005.96
2024-03-02T00:11:07.581Z,1005.89
2024-03-02T00:11:26.342Z,1005.94
2024-03-02T00:11:35.798Z,1005.99
2024-03-02T00:11:45.133Z,1005.90
2024-03-02T00:11:54.545Z,1005.97
2024-03-02T00:12:03.970Z,1005.96
2024-03-02T00:12:13.436Z,1005.92
2024-03-02T00:12:32.261Z,1005.99
2024-03-02T00:12:41.718Z,1005.97
2024-03-02T00:12:51.143Z,1005.94
2024-03-02T00:13:00.495Z,1005.99
2024-03-02T00:13:09.913Z,1005.90
2024-03-02T00:13:19.391Z,1005.96
2024-03-02T00:13:38.332Z,1005.98
2024-03-02T00:13:47.809Z,1005.95
2024-03-02T00:13:57.191Z,1005.94
2024-03-02T00:14:06.593Z,1005.97
2024-03-02T00:14:15.990Z,1005.96
2024-03-02T00:14:25.412Z,1005.97
2024-03-02T00:14:44.272Z,1005.96
2024-03-02T00:14:53.691Z,1005.92
2024-03-02T00:15:03.071Z,1005.94
2024-03-02T00:15:12.512Z,1005.87
2024-03-02T00:15:21.953Z,1006.07
2024-03-02T00:15:31.483Z,1005.91
2024-03-02T00:15:50.202Z,1005.90
2024-03-02T00:15:59.562Z,1005.92
2024-03-02T00:16:08.961Z,1006.05
2024-03-02T00:16:18.374Z,1005.91
2024-03-02T00:16:27.819Z,1005.91
2024-03-02T00:16:37.242Z,1005.93
2024-03-02T00:16:56.058Z,1005.93
2024-03-02T00:17:05.473Z,1005.97
2024-03-02T00:17:14.938Z,1005.96
2024-03-02T00:17:24.346Z,1005.96
2024-03-02T00:17:33.835Z,1005.91
2024-03-02T00:17:43.229Z,1005.96
2024-03-02T00:18:02.057Z,1005.89
2024-03-02T00:18:11.508Z,1005.93
2024-03-02T00:18:20.928Z,1005.93
2024-03-02T00:18:30.251Z,1005.92
2024-03-02T00:18:39.731Z,1005.92
2024-03-02T00:18:49.157Z,1005.98
2024-03-02T00:19:07.979Z,1005.95
2024-03-02T00:19:17.335Z,1005.94
2024-03-02T00:19:26.757Z,1005.97
2024-03-02T00:19:36.148Z,1005.92
2024-03-02T00:19:45.576Z,1005.96
2024-03-02T00:19:54.978Z,1005.99
2024-03-02T00:20:13.820Z,1005.92
2024-03-02T00:20:23.237Z,1005.99
2024-03-02T00:20:32.693Z,1005.98
2024-03-02T00:20:42.090Z,1005.95
2024-03-02T00:20:51.488Z,1006.01
2024-03-02T00:21:00.991Z,1005.91
2024-03-02T00:21:19.686Z,1005.98
2024-03-02T00:21:29.135Z,1005.97
2024-03-02T00:21:38.665Z,1005.98
2024-03-02T00:21:48.034Z,1005.90
2024-03-02T00:21:57.722Z,1005.98
2024-03-02T00:22:07.043Z,1005.92
2024-03-02T00:22:25.895Z,1005.90
2024-03-02T00:22:35.289Z,1005.90
2024-03-02T00:22:44.718Z,1005.98
2024-03-02T00:22:54.099Z,1005.92
2024-03-02T00:23:03.534Z,1005.93
2024-03-02T00:23:12.930Z,1005.92
2024-03-02T00:23:31.730Z,1005.97
2024-03-02T00:23:41.147Z,1005.89
2024-03-02T00:23:50.593Z,1005.92
2024-03-02T00:23:59.990Z,1005.96
2024-03-02T00:24:09.377Z,1005.95
2024-03-02T00:24:18.818Z,1005.97
2024-03-02T00:24:37.664Z,1005.91
2024-03-02T00:24:47.111Z,1005.95
2024-03-02T00:24:56.538Z,1005.99
2024-03-02T00:25:05.907Z,1005.97
2024-03-02T00:25:15.328Z,1005.98
2024-03-02T00:25:24.757Z,1005.94
2024-03-02T00:25:43.585Z,1005.95
2024-03-02T00:25:52.974Z,1005.98
2024-03-02T00:26:02.405Z,1005.95
2024-03-02T00:26:11.838Z,1006.01
2024-03-02T00:26:21.248Z,1005.91
2024-03-02T00:26:30.658Z,1005.86
2024-03-02T00:26:49.554Z,1005.95
2024-03-02T00:26:58.930Z,1005.97
2024-03-02T00:27:08.343Z,1005.98
2024-03-02T00:27:17.764Z,1006.07
2024-03-02T00:27:27.191Z,1005.97
2024-03-02T00:27:36.554Z,1006.03
2024-03-02T00:27:55.508Z,1006.01
2024-03-02T00:28:04.834Z,1005.96
2024-03-02T00:28:14.221Z,1005.97
2024-03-02T00:28:23.649Z,1005.97
2024-03-02T00:28:33.073Z,1005.96
2024-03-02T00:28:42.469Z,1006.05
2024-03-02T00:29:01.341Z,1006.01
2024-03-02T00:29:10.751Z,1006.01
2024-03-02T00:29:20.204Z,1006.01
2024-03-02T00:29:29.602Z,1005.99
2024-03-02T00:29:39.035Z,1006.02
2024-03-02T00:29:48.503Z,1005.95
2024-03-02T00:30:07.383Z,1006.01
2024-03-02T00:30:16.827Z,1006.03
2024-03-02T00:30:26.257Z,1006.05
2024-03-02T00:30:35.713Z,1005.97
2024-03-02T00:30:45.210Z,1005.94
2024-03-02T00:30:54.555Z,1006.03
2024-03-02T00:31:13.449Z,1006.02
2024-03-02T00:31:22.724Z,1006.02
2024-03-02T00:31:32.120Z,1005.98
2024-03-02T00:31:41.617Z,1006.00
2024-03-02T00:31:51.017Z,1005.99
2024-03-02T00:32:00.445Z,1005.93
2024-03-02T00:32:19.327Z,1005.98
2024-03-02T00:32:28.811Z,1005.95
2024-03-02T00:32:38.244Z,1006.04
2024-03-02T00:32:47.727Z,1005.89
2024-03-02T00:32:57.247Z,1005.99
2024-03-02T00:33:06.693Z,1005.96
2024-03-02T00:33:25.553Z,1005.95
2024-03-02T00:33:35.138Z,1005.94
2024-03-02T00:33:44.395Z,1005.96
2024-03-02T00:33:53.816Z,1006.01
2024-03-02T00:34:03.238Z,1005.98
2024-03-02T00:34:12.588Z,1006.01
2024-03-02T00:34:31.466Z,1005.95
2024-03-02T00:34:40.936Z,1005.94
2024-03-02T00:34:50.328Z,1005.95
2024-03-02T00:34:59.736Z,1005.96
2024-03-02T00:35:09.143Z,1005.98
2024-03-02T00:35:18.566Z,1006.01
2024-03-02T00:35:37.402Z,1005.99
2024-03-02T00:35:46.816Z,1005.99
2024-03-02T00:35:56.214Z,1006.00
2024-03-02T00:36:05.685Z,1006.03
2024-03-02T00:36:15.134Z,1006.01
2024-03-02T00:36:24.539Z,1005.98
2024-03-02T00:36:43.387Z,1006.03
2024-03-02T00:36:52.815Z,1006.00
2024-03-02T00:37:02.320Z,1006.05
2024-03-02T00:37:11.627Z,1006.00
2024-03-02T00:37:21.010Z,1006.02
2024-03-02T00:37:30.451Z,1006.04
2024-03-02T00:37:49.306Z,1006.00
2024-03-02T00:37:58.704Z,1006.02
2024-03-02T00:38:08.138Z,1006.03
2024-03-02T00:38:17.513Z,1006.00
2024-03-02T00:38:26.925Z,1006.02
2024-03-02T00:38:36.332Z,1006.04
2024-03-02T00:38:55.242Z,1006.01
2024-03-02T00:39:04.669Z,1006.03
2024-03-02T00:39:14.045Z,1005.95
2024-03-02T00:39:23.508Z,1006.01
2024-03-02T00:39:32.850Z,1006.03
2024-03-02T00:39:42.282Z,1005.95
2024-03-02T00:40:01.153Z,1006.00
2024-03-02T00:40:10.485Z,1005.98
2024-03-02T00:40:19.940Z,1005.96
2024-03-02T00:40:29.366Z,1006.03
2024-03-02T00:40:38.762Z,1006.02
2024-03-02T00:40:48.136Z,1005.98
2024-03-02T00:41:07.007Z,1005.97
2024-03-02T00:41:16.465Z,1005.97
2024-03-02T00:41:25.878Z,1006.03
2024-03-02T00:41:35.300Z,1006.00
2024-03-02T00:41:44.702Z,1005.97
2024-03-02T00:41:54.124Z,1005.96
2024-03-02T00:42:13.009Z,1006.04
2024-03-02T00:42:22.354Z,1005.96
2024-03-02T00:42:31.771Z,1005.99
2024-03-02T00:42:41.230Z,1006.05
2024-03-02T00:42:50.633Z,1006.02
2024-03-02T00:42:59.991Z,1005.98
2024-03-02T00:43:18.805Z,1005.94
2024-03-02T00:43:28.171Z,1006.02
2024-03-02T00:43:37.609Z,1005.97
2024-03-02T00:43:48.087Z,1006.01
2024-03-02T00:43:56.541Z,1005.96
2024-03-02T00:44:05.900Z,1005.93
2024-03-02T00:44:24.790Z,1005.99
2024-03-02T00:44:34.177Z,1005.96
2024-03-02T00:44:43.741Z,1005.98
2024-03-02T00:44:53.143Z,1006.05
2024-03-02T00:45:02.585Z,1006.02
2024-03-02T00:45:11.986Z,1005.93
2024-03-02T00:45:31.029Z,1005.94
2024-03-02T00:45:40.411Z,1005.99
2024-03-02T00:45:49.873Z,1006.00
2024-03-02T00:45:59.157Z,1005.94
2024-03-02T00:46:08.544Z,1006.01
2024-03-02T00:46:17.934Z,1005.94
2024-03-02T00:46:36.780Z,1006.03
2024-03-02T00:46:46.192Z,1005.94
2024-03-02T00:46:55.613Z,1006.03
2024-03-02T00:47:05.040Z,1006.04
2024-03-02T00:47:14.455Z,1006.01
2024-03-02T00:47:23.918Z,1006.01
2024-03-02T00:47:42.735Z,1005.96
2024-03-02T00:47:52.087Z,1006.05
2024-03-02T00:48:01.546Z,1005.93
2024-03-02T00:48:10.877Z,1005.98
2024-03-02T00:48:20.289Z,1006.03
2024-03-02T00:48:29.762Z,1005.97
2024-03-02T00:48:48.548Z,1005.98
2024-03-02T00:48:58.081Z,1005.97
2024-03-02T00:49:07.368Z,1005.90
2024-03-02T00:49:16.798Z,1005.95
2024-03-02T00:49:26.242Z,1006.02
2024-03-02T00:49:37.135Z,1005.98
2024-03-02T00:49:54.595Z,1005.98
2024-03-02T00:50:07.947Z,1005.90
2024-03-02T00:50:20.525Z,1005.94
2024-03-02T00:50:30.287Z,1005.96
2024-03-02T00:50:32.189Z,1006.01
2024-03-02T00:50:41.615Z,1005.97
2024-03-02T00:51:00.425Z,1005.92
2024-03-02T00:51:09.804Z,1005.94
2024-03-02T00:51:19.245Z,1005.92
2024-03-02T00:51:28.659Z,1005.90
2024-03-02T00:51:38.148Z,1005.95
2024-03-02T00:51:47.478Z,1005.84
2024-03-02T00:52:06.276Z,1005.86
2024-03-02T00:52:15.681Z,1005.93
2024-03-02T00:52:25.068Z,1005.87
2024-03-02T00:52:34.491Z,1005.92
2024-03-02T00:52:43.878Z,1005.82
2024-03-02T00:52:53.299Z,1005.97
2024-03-02T00:53:12.152Z,1005.86
2024-03-02T00:53:21.533Z,1005.88
2024-03-02T00:53:30.946Z,1005.87
2024-03-02T00:53:40.374Z,1005.97
2024-03-02T00:53:49.789Z,1005.91
2024-03-02T00:53:59.264Z,1005.92
2024-03-02T00:54:18.134Z,1005.90
2024-03-02T00:54:27.591Z,1005.92
2024-03-02T00:54:36.915Z,1005.84
2024-03-02T00:54:46.343Z,1005.86
2024-03-02T00:54:55.983Z,1005.82
2024-03-02T00:55:05.385Z,1005.84
2024-03-02T00:55:24.246Z,1005.82
2024-03-02T00:55:36.526Z,1005.90
2024-03-02T00:55:43.556Z,1005.79
2024-03-02T00:55:52.957Z,1005.85
2024-03-02T00:56:02.390Z,1005.86
2024-03-02T00:56:11.815Z,1005.85
2024-03-02T00:56:30.650Z,1005.86
2024-03-02T00:56:40.033Z,1005.85
2024-03-02T00:56:49.430Z,1005.88
2024-03-02T00:56:59.038Z,1005.84
2024-03-02T00:57:08.428Z,1005.85
2024-03-02T00:57:17.891Z,1005.86
2024-03-02T00:57:36.656Z,1005.84
2024-03-02T00:57:46.083Z,1005.98
2024-03-02T00:57:55.506Z,1005.88
2024-03-02T00:58:04.870Z,1005.95
2024-03-02T00:58:14.288Z,1005.81
2024-03-02T00:58:23.706Z,1005.97
2024-03-02T00:58:42.495Z,1005.86
2024-03-02T00:58:51.912Z,1005.89
2024-03-02T00:59:01.389Z,1005.91
2024-03-02T00:59:10.819Z,1005.91
2024-03-02T00:59:20.233Z,1005.90
2024-03-02T00:59:29.646Z,1005.92
2024-03-02T00:59:48.466Z,1005.90
2024-03-02T00:59:57.862Z,1005.85
2024-03-02T01:00:07.343Z,1005.94
2024-03-02T01:00:16.880Z,1005.90
2024-03-02T01:00:26.165Z,1005.91
2024-03-02T01:00:35.586Z,1005.86
2024-03-02T01:00:54.424Z,1005.89
2024-03-02T01:01:03.938Z,1005.87
2024-03-02T01:01:13.243Z,1005.90
2024-03-02T01:01:22.670Z,1005.93
2024-03-02T01:01:32.052Z,1005.91
2024-03-02T01:01:41.487Z,1005.93
2024-03-02T01:02:00.270Z,1005.91
2024-03-02T01:02:09.660Z,1005.89
2024-03-02T01:02:19.048Z,1005.89
2024-03-02T01:02:28.453Z,1005.86
2024-03-02T01:02:37.866Z,1005.86
2024-03-02T01:02:47.280Z,1005.87
2024-03-02T01:03:06.103Z,1005.89
2024-03-02T01:03:15.553Z,1005.80
2024-03-02T01:03:24.912Z,1005.92
2024-03-02T01:03:34.362Z,1005.89
2024-03-02T01:03:43.794Z,1005.86
2024-03-02T01:03:53.310Z,1005.82
2024-03-02T01:04:11.994Z,1005.87
2024-03-02T01:04:21.412Z,1005.88
2024-03-02T01:04:30.851Z,1005.91
2024-03-02T01:04:40.257Z,1005.91
2024-03-02T01:04:49.694Z,1005.88
2024-03-02T01:04:59.100Z,1005.86
2024-03-02T01:05:17.951Z,1005.90
2024-03-02T01:05:27.351Z,1005.90
2024-03-02T01:05:36.757Z,1005.83
2024-03-02T01:05:46.164Z,1005.90
2024-03-02T01:05:55.782Z,1005.88
2024-03-02T01:06:05.201Z,1005.89
2024-03-02T01:06:24.243Z,1005.89
2024-03-02T01:06:33.468Z,1005.92
2024-03-02T01:06:42.950Z,1005.91
2024-03-02T01:06:52.325Z,1005.87
2024-03-02T01:07:01.728Z,1005.88
2024-03-02T01:07:11.115Z,1005.93
2024-03-02T01:07:29.928Z,1005.85
2024-03-02T01:07:39.385Z,1005.94
2024-03-02T01:07:48.794Z,1005.89
2024-03-02T01:07:58.165Z,1005.85
2024-03-02T01:08:07.551Z,1005.88
2024-03-02T01:08:16.950Z,1005.90
2024-03-02T01:08:35.854Z,1005.83
2024-03-02T01:08:45.231Z,1005.90
2024-03-02T01:08:54.657Z,1005.83
2024-03-02T01:09:04.062Z,1005.93
2024-03-02T01:09:13.809Z,1005.87
2024-03-02T01:09:22.971Z,1005.83
2024-03-02T01:09:41.822Z,1005.88
2024-03-02T01:09:51.147Z,1005.88
2024-03-02T01:10:00.651Z,1005.77
2024-03-02T01:10:09.958Z,1005.89
2024-03-02T01:10:19.384Z,1005.82
2024-03-02T01:10:28.786Z,1005.92
2024-03-02T01:10:47.625Z,1005.89
2024-03-02T01:10:57.094Z,1005.86
2024-03-02T01:11:06.485Z,1005.80
2024-03-02T01:11:15.879Z,1005.88
2024-03-02T01:11:25.307Z,1005.85
2024-03-02T01:11:34.703Z,1005.80
2024-03-02T01:11:53.557Z,1005.88
2024-03-02T01:12:02.973Z,1005.84
2024-03-02T01:12:12.478Z,1005.84
2024-03-02T01:12:21.807Z,1005.87
2024-03-02T01:12:31.287Z,1005.85
2024-03-02T01:12:40.716Z,1005.81
2024-03-02T01:12:59.557Z,1005.80
2024-03-02T01:13:08.904Z,1005.83
2024-03-02T01:13:18.345Z,1005.83
2024-03-02T01:13:27.765Z,1005.86
2024-03-02T01:13:37.181Z,1005.90
2024-03-02T01:13:46.593Z,1005.86
2024-03-02T01:14:05.459Z,1005.81
2024-03-02T01:14:14.833Z,1005.85
2024-03-02T01:14:24.249Z,1005.83
2024-03-02T01:14:33.669Z,1005.82
2024-03-02T01:14:43.087Z,1005.82
2024-03-02T01:14:52.513Z,1005.88
2024-03-02T01:15:11.450Z,1005.83
2024-03-02T01:15:20.899Z,1005.79
2024-03-02T01:15:30.315Z,1005.87
2024-03-02T01:15:39.685Z,1005.79
2024-03-02T01:15:49.081Z,1005.83
2024-03-02T01:15:58.558Z,1005.85
2024-03-02T01:16:17.296Z,1005.85
2024-03-02T01:16:26.731Z,1005.80
2024-03-02T01:16:36.150Z,1005.77
2024-03-02T01:16:45.584Z,1005.85
2024-03-02T01:16:55.133Z,1005.79
2024-03-02T01:17:04.645Z,1005.77
2024-03-02T01:17:23.422Z,1005.85
2024-03-02T01:17:32.821Z,1005.79
2024-03-02T01:17:42.306Z,1005.82
2024-03-02T01:17:54.780Z,1005.75
2024-03-02T01:18:01.166Z,1005.80
2024-03-02T01:18:10.564Z,1005.82
2024-03-02T01:18:29.419Z,1005.79
2024-03-02T01:18:38.954Z,1005.77
2024-03-02T01:18:48.505Z,1005.79
2024-03-02T01:18:57.877Z,1005.82
2024-03-02T01:19:07.306Z,1005.77
2024-03-02T01:19:16.711Z,1005.86
2024-03-02T01:19:35.522Z,1005.84
2024-03-02T01:19:45.196Z,1005.83
2024-03-02T01:19:54.581Z,1005.80
2024-03-02T01:20:04.014Z,1005.84
2024-03-02T01:20:13.434Z,1005.86
2024-03-02T01:20:22.861Z,1005.81
2024-03-02T01:20:41.697Z,1005.80
2024-03-02T01:20:51.105Z,1005.82
2024-03-02T01:21:00.574Z,1005.84
2024-03-02T01:21:09.929Z,1005.78
2024-03-02T01:21:19.530Z,1005.79
2024-03-02T01:21:28.823Z,1005.77
2024-03-02T01:21:47.659Z,1005.83
2024-03-02T01:21:57.102Z,1005.84
2024-03-02T01:22:06.464Z,1005.79
2024-03-02T01:22:15.884Z,1005.79
2024-03-02T01:22:25.301Z,1005.83
2024-03-02T01:22:34.767Z,1005.75
2024-03-02T01:22:53.544Z,1005.79
2024-03-02T01:23:02.973Z,1005.74
2024-03-02T01:23:12.363Z,1005.74
2024-03-02T01:23:21.782Z,1005.78
2024-03-02T01:23:31.244Z,1005.76
2024-03-02T01:23:40.670Z,1005.77
2024-03-02T01:23:59.578Z,1005.71
2024-03-02T01:24:09.002Z,1005.73
2024-03-02T01:24:18.423Z,1005.79
2024-03-02T01:24:27.882Z,1005.78
2024-03-02T01:24:37.266Z,1005.66
2024-03-02T01:24:46.651Z,1005.73
2024-03-02T01:25:05.377Z,1005.76
2024-03-02T01:25:14.777Z,1005.72
2024-03-02T01:25:24.216Z,1005.75
2024-03-02T01:25:33.631Z,1005.74
2024-03-02T01:25:43.121Z,1005.77
2024-03-02T01:25:52.566Z,1005.74
2024-03-02T01:26:11.370Z,1005.70
2024-03-02T01:26:20.753Z,1005.76
2024-03-02T01:26:30.148Z,1005.68
2024-03-02T01:26:39.534Z,1005.81
2024-03-02T01:26:48.987Z,1005.75
2024-03-02T01:26:58.407Z,1005.76
2024-03-02T01:27:17.372Z,1005.77
2024-03-02T01:27:26.776Z,1005.71
2024-03-02T01:27:36.233Z,1005.71
2024-03-02T01:27:49.146Z,1005.76
2024-03-02T01:27:55.889Z,1005.71
2024-03-02T01:28:05.426Z,1005.70
2024-03-02T01:28:24.182Z,1005.72
2024-03-02T01:28:33.725Z,1005.72
2024-03-02T01:28:43.126Z,1005.67
2024-03-02T01:28:52.536Z,1005.67
2024-03-02T01:29:01.952Z,1005.71
2024-03-02T01:29:11.489Z,1005.72
2024-03-02T01:29:30.318Z,1005.70
2024-03-02T01:29:39.722Z,1005.71
2024-03-02T01:29:49.114Z,1005.77
2024-03-02T01:29:58.608Z,1005.71
2024-03-02T01:30:07.967Z,1005.70
2024-03-02T01:30:17.451Z,1005.70
2024-03-02T01:30:36.277Z,1005.66
2024-03-02T01:30:45.717Z,1005.69
2024-03-02T01:30:55.242Z,1005.74
2024-03-02T01:31:04.619Z,1005.72
2024-03-02T01:31:13.946Z,1005.72
2024-03-02T01:31:23.373Z,1005.71
2024-03-02T01:31:42.215Z,1005.69
2024-03-02T01:31:51.629Z,1005.70
2024-03-02T01:32:01.056Z,1005.63
2024-03-02T01:32:10.475Z,1005.70
2024-03-02T01:32:19.893Z,1005.62
2024-03-02T01:32:29.349Z,1005.66
2024-03-02T01:32:48.196Z,1005.58
2024-03-02T01:32:57.610Z,1005.65
2024-03-02T01:33:07.111Z,1005.64
2024-03-02T01:33:16.606Z,1005.61
2024-03-02T01:33:25.922Z,1005.68
2024-03-02T01:33:35.377Z,1005.56
2024-03-02T01:33:54.151Z,1005.62
2024-03-02T01:34:03.672Z,1005.62
2024-03-02T01:34:13.024Z,1005.62
2024-03-02T01:34:22.397Z,1005.65
2024-03-02T01:34:31.786Z,1005.68
2024-03-02T01:34:41.205Z,1005.61
2024-03-02T01:35:00.081Z,1005.65
2024-03-02T01:35:09.453Z,1005.61
2024-03-02T01:35:18.905Z,1005.61
2024-03-02T01:35:28.344Z,1005.57
2024-03-02T01:35:37.747Z,1005.61
2024-03-02T01:35:47.160Z,1005.59
2024-03-02T01:36:06.002Z,1005.53
2024-03-02T01:36:15.571Z,1005.58
2024-03-02T01:36:24.857Z,1005.57
2024-03-02T01:36:34.333Z,1005.56
2024-03-02T01:36:43.678Z,1005.54
2024-03-02T01:36:53.096Z,1005.59
2024-03-02T01:37:11.968Z,1005.55
2024-03-02T01:37:21.440Z,1005.55
2024-03-02T01:37:30.920Z,1005.53
2024-03-02T01:37:40.333Z,1005.53
2024-03-02T01:37:49.746Z,1005.49
2024-03-02T01:37:59.225Z,1005.58
2024-03-02T01:38:18.031Z,1005.58
2024-03-02T01:38:27.412Z,1005.57
2024-03-02T01:38:36.824Z,1005.56
2024-03-02T01:38:46.239Z,1005.44
2024-03-02T01:38:55.932Z,1005.54
2024-03-02T01:39:05.362Z,1005.54
2024-03-02T01:39:24.217Z,1005.55
2024-03-02T01:39:33.862Z,1005.57
2024-03-02T01:39:43.219Z,1005.58
2024-03-02T01:39:52.691Z,1005.55
2024-03-02T01:40:02.144Z,1005.61
2024-03-02T01:40:11.629Z,1005.52
2024-03-02T01:40:30.418Z,1005.57
2024-03-02T01:40:39.824Z,1005.58
2024-03-02T01:40:49.222Z,1005.52
2024-03-02T01:40:58.762Z,1005.53
2024-03-02T01:41:08.085Z,1005.55
2024-03-02T01:41:17.482Z,1005.52
2024-03-02T01:41:36.261Z,1005.57
2024-03-02T01:41:45.668Z,1005.54
2024-03-02T01:41:55.065Z,1005.53
2024-03-02T01:42:04.497Z,1005.53
2024-03-02T01:42:13.970Z,1005.53
2024-03-02T01:42:23.566Z,1005.61
2024-03-02T01:42:42.251Z,1005.62
2024-03-02T01:42:51.797Z,1005.56
2024-03-02T01:43:01.142Z,1005.58
2024-03-02T01:43:10.515Z,1005.57
2024-03-02T01:43:19.937Z,1005.57
2024-03-02T01:43:29.315Z,1005.55
2024-03-02T01:43:48.126Z,1005.56
2024-03-02T01:43:57.577Z,1005.54
2024-03-02T01:44:07.001Z,1005.53
2024-03-02T01:44:16.422Z,1005.61
2024-03-02T01:44:25.816Z,1005.48
2024-03-02T01:44:35.252Z,1005.50
2024-03-02T01:44:54.137Z,1005.55
2024-03-02T01:45:03.596Z,1005.58
2024-03-02T01:45:13.151Z,1005.59
2024-03-02T01:45:22.455Z,1005.49
2024-03-02T01:45:31.854Z,1005.64
2024-03-02T01:45:41.286Z,1005.53
2024-03-02T01:46:00.162Z,1005.49
2024-03-02T01:46:09.490Z,1005.54
2024-03-02T01:46:18.924Z,1005.50
2024-03-02T01:46:28.306Z,1005.55
2024-03-02T01:46:37.723Z,1005.57
2024-03-02T01:46:47.153Z,1005.47
2024-03-02T01:47:06.030Z,1005.56
2024-03-02T01:47:15.441Z,1005.54
2024-03-02T01:47:24.849Z,1005.57
2024-03-02T01:47:34.277Z,1005.58
2024-03-02T01:47:43.785Z,1005.60
2024-03-02T01:47:53.160Z,1005.51
2024-03-02T01:48:12.001Z,1005.48
2024-03-02T01:48:21.422Z,1005.55
2024-03-02T01:48:30.865Z,1005.52
2024-03-02T01:48:40.282Z,1005.48
2024-03-02T01:48:49.674Z,1005.46
2024-03-02T01:48:59.082Z,1005.47
2024-03-02T01:49:17.866Z,1005.45
2024-03-02T01:49:27.236Z,1005.47
2024-03-02T01:49:36.643Z,1005.53
2024-03-02T01:49:46.071Z,1005.51
2024-03-02T01:49:55.538Z,1005.44
2024-03-02T01:50:04.968Z,1005.44
2024-03-02T01:50:23.801Z,1005.49
2024-03-02T01:50:33.210Z,1005.47
2024-03-02T01:50:42.784Z,1005.42
2024-03-02T01:50:52.159Z,1005.44
2024-03-02T01:51:01.595Z,1005.48
2024-03-02T01:51:10.926Z,1005.44
2024-03-02T01:51:29.824Z,1005.47
2024-03-02T01:51:39.210Z,1005.44
2024-03-02T01:51:48.627Z,1005.45
2024-03-02T01:51:58.078Z,1005.39
2024-03-02T01:52:07.418Z,1005.41
2024-03-02T01:52:16.815Z,1005.44
2024-03-02T01:52:35.634Z,1005.44
2024-03-02T01:52:45.032Z,1005.49
2024-03-02T01:52:54.420Z,1005.37
2024-03-02T01:53:03.870Z,1005.31
2024-03-02T01:53:13.235Z,1005.38
2024-03-02T01:53:22.624Z,1005.40
2024-03-02T01:53:41.440Z,1005.41
2024-03-02T01:53:50.878Z,1005.40
2024-03-02T01:54:00.308Z,1005.40
2024-03-02T01:54:09.711Z,1005.45
2024-03-02T01:54:19.185Z,1005.37
2024-03-02T01:54:28.493Z,1005.35
2024-03-02T01:54:47.402Z,1005.45
2024-03-02T01:54:56.838Z,1005.44
2024-03-02T01:55:06.214Z,1005.38
2024-03-02T01:55:15.589Z,1005.46
2024-03-02T01:55:25.003Z,1005.33
2024-03-02T01:55:34.438Z,1005.37
2024-03-02T01:55:53.217Z,1005.35
2024-03-02T01:56:02.708Z,1005.37
2024-03-02T01:56:12.052Z,1005.32
2024-03-02T01:56:21.477Z,1005.38
2024-03-02T01:56:30.872Z,1005.34
2024-03-02T01:56:40.274Z,1005.35
2024-03-02T01:56:59.118Z,1005.30
2024-03-02T01:57:08.534Z,1005.41
2024-03-02T01:57:17.961Z,1005.32
2024-03-02T01:57:27.364Z,1005.33
2024-03-02T01:57:36.825Z,1005.36
2024-03-02T01:57:46.320Z,1005.36
2024-03-02T01:58:05.251Z,1005.36
2024-03-02T01:58:14.609Z,1005.35
2024-03-02T01:58:24.112Z,1005.39
2024-03-02T01:58:33.503Z,1005.34
2024-03-02T01:58:42.969Z,1005.29
2024-03-02T01:58:52.381Z,1005.40
2024-03-02T01:59:11.250Z,1005.34
2024-03-02T01:59:20.679Z,1005.31
2024-03-02T01:59:30.090Z,1005.33
2024-03-02T01:59:39.529Z,1005.38
2024-03-02T01:59:48.938Z,1005.35
2024-03-02T01:59:58.337Z,1005.36
2024-03-02T02:00:17.200Z,1005.36
2024-03-02T02:00:26.638Z,1005.33
2024-03-02T02:00:36.055Z,1005.36
2024-03-02T02:00:45.481Z,1005.32
2024-03-02T02:00:55.100Z,1005.29
2024-03-02T02:01:04.417Z,1005.36
2024-03-02T02:01:23.373Z,1005.36
2024-03-02T02:01:32.716Z,1005.31
2024-03-02T02:01:42.419Z,1005.33
2024-03-02T02:01:51.781Z,1005.38
2024-03-02T02:02:01.247Z,1005.32
2024-03-02T02:02:10.659Z,1005.29
2024-03-02T02:02:29.511Z,1005.33
2024-03-02T02:02:38.916Z,1005.28
2024-03-02T02:02:48.350Z,1005.33
2024-03-02T02:02:57.841Z,1005.28
2024-03-02T02:03:07.256Z,1005.37
2024-03-02T02:03:16.702Z,1005.32
2024-03-02T02:03:35.546Z,1005.35
2024-03-02T02:03:45.045Z,1005.37
2024-03-02T02:03:54.475Z,1005.34
2024-03-02T02:04:03.815Z,1005.33
2024-03-02T02:04:13.238Z,1005.35
2024-03-02T02:04:22.655Z,1005.34
2024-03-02T02:04:41.501Z,1005.35
2024-03-02T02:04:50.906Z,1005.28
2024-03-02T02:05:00.308Z,1005.27
2024-03-02T02:05:09.719Z,1005.28
2024-03-02T02:05:19.112Z,1005.27
2024-03-02T02:05:28.551Z,1005.33
2024-03-02T02:05:47.331Z,1005.29
2024-03-02T02:05:56.750Z,1005.26
2024-03-02T02:06:06.189Z,1005.31
2024-03-02T02:06:15.704Z,1005.30
2024-03-02T02:06:25.018Z,1005.34
2024-03-02T02:06:34.514Z,1005.25
2024-03-02T02:06:53.320Z,1005.28
2024-03-02T02:07:02.736Z,1005.29
2024-03-02T02:07:12.102Z,1005.30
2024-03-02T02:07:21.518Z,1005.27
2024-03-02T02:07:30.888Z,1005.28
2024-03-02T02:07:40.341Z,1005.24
2024-03-02T02:07:59.167Z,1005.20
2024-03-02T02:08:08.594Z,1005.26
2024-03-02T02:08:18.003Z,1005.27
2024-03-02T02:08:27.410Z,1005.23
2024-03-02T02:08:36.781Z,1005.31
2024-03-02T02:08:46.258Z,1005.24
2024-03-02T02:09:05.066Z,1005.25
2024-03-02T02:09:14.543Z,1005.26
2024-03-02T02:09:24.052Z,1005.23
2024-03-02T02:09:33.471Z,1005.27
2024-03-02T02:09:42.888Z,1005.24
2024-03-02T02:09:52.327Z,1005.27
2024-03-02T02:10:11.124Z,1005.26
2024-03-02T02:10:20.533Z,1005.26
2024-03-02T02:10:29.938Z,1005.25
2024-03-02T02:10:39.349Z,1005.19
2024-03-02T02:10:48.790Z,1005.26
2024-03-02T02:10:58.191Z,1005.26
2024-03-02T02:11:17.030Z,1005.27
2024-03-02T02:11:26.435Z,1005.27
2024-03-02T02:11:35.801Z,1005.28
2024-03-02T02:11:45.215Z,1005.27
2024-03-02T02:11:54.709Z,1005.25
2024-03-02T02:12:04.109Z,1005.23
2024-03-02T02:12:23.023Z,1005.18
2024-03-02T02:12:32.449Z,1005.20
2024-03-02T02:12:41.989Z,1005.33
2024-03-02T02:12:51.313Z,1005.21
2024-03-02T02:13:00.708Z,1005.27